Time;durP1;ratioP1;P1;durP2;ratioP2;P2;SDS_P1;SDS_P2;PMS_P1;PMS_P2;Temp;Humidity;BMP_temperature;BMP_pressure;BME280_temperature;BME280_humidity;BME280_pressure;Samples;Min_cycle;Max_cycle;Signal;HPM_P1;HPM_P2
2022/06/17 00:01:45;;;;;;;2.27;2.03;;;17.30;99.90;;;;;;5023964;28;20218;-69
2022/06/17 00:04:12;;;;;;;4.10;1.90;;;17.20;99.90;;;;;;5028804;28;20211;-69
2022/06/17 00:06:42;;;;;;;2.93;2.03;;;17.20;99.90;;;;;;5018020;28;20493;-70
2022/06/17 00:09:13;;;;;;;4.53;2.83;;;17.10;99.90;;;;;;5015699;28;20526;-68
2022/06/17 00:11:41;;;;;;;3.13;1.93;;;17.10;99.90;;;;;;5032721;28;20207;-69
2022/06/17 00:14:13;;;;;;;3.27;1.97;;;17.00;99.90;;;;;;5023147;28;20218;-69
2022/06/17 00:16:40;;;;;;;2.97;1.60;;;16.90;99.90;;;;;;5015723;28;20238;-69
2022/06/17 00:19:07;;;;;;;2.70;2.47;;;16.90;99.90;;;;;;5015984;28;20655;-70
2022/06/17 00:21:35;;;;;;;5.77;1.90;;;16.90;99.90;;;;;;5028688;28;20204;-69
2022/06/17 00:24:10;;;;;;;1.80;1.60;;;16.80;99.90;;;;;;5015524;28;20207;-70
2022/06/17 00:26:38;;;;;;;4.30;1.70;;;16.80;99.90;;;;;;5022853;28;20655;-69
2022/06/17 00:29:05;;;;;;;2.37;1.70;;;16.70;99.90;;;;;;5014420;28;20231;-69
2022/06/17 00:31:32;;;;;;;3.30;1.60;;;16.70;99.90;;;;;;5020018;28;20199;-69
2022/06/17 00:33:58;;;;;;;2.67;2.20;;;16.70;99.90;;;;;;5018351;28;20282;-69
2022/06/17 00:36:25;;;;;;;2.10;1.57;;;16.70;99.90;;;;;;5014469;28;20766;-70
2022/06/17 00:38:52;;;;;;;3.30;2.00;;;16.60;99.90;;;;;;5014196;28;20691;-69
2022/06/17 00:41:25;;;;;;;2.60;1.70;;;16.60;99.90;;;;;;5018089;28;20208;-70
2022/06/17 00:43:54;;;;;;;3.07;1.70;;;16.60;99.90;;;;;;5021553;28;20203;-71
2022/06/17 00:46:33;;;;;;;2.07;1.73;;;16.50;99.90;;;;;;5018304;28;20209;-70
2022/06/17 00:49:07;;;;;;;3.37;1.50;;;16.50;99.90;;;;;;5018514;28;20202;-70
2022/06/17 00:51:41;;;;;;;2.63;1.60;;;16.50;99.90;;;;;;5014475;28;20207;-69
2022/06/17 00:54:17;;;;;;;4.73;1.70;;;16.50;99.90;;;;;;5015984;28;20214;-70
2022/06/17 00:56:44;;;;;;;2.07;1.43;;;16.40;99.90;;;;;;5018015;28;20203;-70
2022/06/17 00:59:14;;;;;;;2.30;1.50;;;16.40;99.90;;;;;;5030726;28;20261;-70
2022/06/17 01:01:46;;;;;;;3.03;1.60;;;16.30;99.90;;;;;;5016144;28;20212;-72
2022/06/17 01:04:17;;;;;;;1.47;1.37;;;16.30;99.90;;;;;;5013327;28;20211;-73
2022/06/17 01:06:49;;;;;;;2.53;1.50;;;16.20;99.90;;;;;;5018658;28;20230;-73
2022/06/17 01:12:09;;;;;;;1.30;1.20;;;16.20;99.90;;;;;;5023550;28;20257;-73
2022/06/17 01:14:38;;;;;;;2.40;1.37;;;16.10;99.90;;;;;;5016415;28;20265;-73
2022/06/17 01:17:06;;;;;;;2.53;1.50;;;16.10;99.90;;;;;;5015786;28;20210;-73
2022/06/17 01:19:37;;;;;;;2.50;1.50;;;16.00;99.90;;;;;;5012866;28;20239;-72
2022/06/17 01:22:15;;;;;;;3.13;1.80;;;16.00;99.90;;;;;;5027020;28;20630;-73
2022/06/17 01:24:44;;;;;;;2.97;1.67;;;15.90;99.90;;;;;;5021871;28;20209;-74
2022/06/17 01:27:12;;;;;;;2.30;1.40;;;15.90;99.90;;;;;;5015090;28;20669;-73
2022/06/17 01:29:39;;;;;;;2.73;1.70;;;15.90;99.90;;;;;;5020845;28;20223;-73
2022/06/17 01:32:08;;;;;;;2.17;1.70;;;15.90;99.90;;;;;;5020719;28;20625;-73
2022/06/17 01:34:36;;;;;;;3.00;1.77;;;15.90;99.90;;;;;;5024552;28;20523;-73
2022/06/17 01:37:03;;;;;;;2.43;1.60;;;15.90;99.90;;;;;;5014713;28;20211;-73
2022/06/17 01:39:30;;;;;;;3.07;1.83;;;15.90;99.90;;;;;;5027046;28;20223;-73
2022/06/17 01:41:58;;;;;;;2.80;1.70;;;15.90;99.90;;;;;;5015876;28;20210;-73
2022/06/17 01:44:34;;;;;;;2.10;1.70;;;15.90;99.90;;;;;;5016532;28;20210;-73
2022/06/17 01:47:03;;;;;;;2.47;1.53;;;15.90;99.90;;;;;;5012299;28;20599;-72
2022/06/17 01:49:35;;;;;;;1.90;1.50;;;15.80;99.90;;;;;;5011003;28;20199;-72
2022/06/17 01:52:06;;;;;;;1.50;1.40;;;15.80;99.90;;;;;;5011780;28;20219;-72
2022/06/17 01:54:37;;;;;;;2.80;1.47;;;15.70;99.90;;;;;;5017594;28;20205;-73
2022/06/17 01:57:08;;;;;;;1.13;1.00;;;15.70;99.90;;;;;;5011960;28;20688;-73
2022/06/17 01:59:41;;;;;;;2.80;1.60;;;15.70;99.90;;;;;;5015353;28;20215;-73
2022/06/17 02:02:10;;;;;;;2.70;1.40;;;15.60;99.90;;;;;;5018888;28;20546;-73
2022/06/17 02:04:40;;;;;;;1.50;1.20;;;15.60;99.90;;;;;;5017486;28;20211;-73
2022/06/17 02:07:15;;;;;;;1.30;1.20;;;15.60;99.90;;;;;;5018217;28;20218;-73
2022/06/17 02:09:42;;;;;;;1.93;1.40;;;15.60;99.90;;;;;;5022066;28;20210;-73
2022/06/17 02:12:13;;;;;;;2.27;1.70;;;15.60;99.90;;;;;;5016185;28;20219;-73
2022/06/17 02:14:40;;;;;;;2.63;1.40;;;15.60;99.90;;;;;;5021742;28;20238;-73
2022/06/17 02:17:08;;;;;;;1.77;1.20;;;15.60;99.90;;;;;;5019611;28;20214;-73
2022/06/17 02:19:38;;;;;;;2.80;1.37;;;15.60;99.90;;;;;;5016504;28;20700;-73
2022/06/17 02:22:08;;;;;;;1.50;1.40;;;15.60;99.90;;;;;;5027799;28;20225;-73
2022/06/17 02:24:36;;;;;;;1.40;1.30;;;15.60;99.90;;;;;;5016667;28;20211;-73
2022/06/17 02:27:05;;;;;;;2.03;1.30;;;15.60;99.90;;;;;;5017715;28;20682;-73
2022/06/17 02:29:36;;;;;;;2.43;1.30;;;15.60;99.90;;;;;;5019661;28;20446;-73
2022/06/17 02:32:07;;;;;;;2.53;1.40;;;15.60;99.90;;;;;;5024027;28;20199;-73
2022/06/17 02:34:34;;;;;;;2.37;1.40;;;15.70;99.90;;;;;;5029389;28;20217;-74
2022/06/17 02:37:06;;;;;;;1.50;1.10;;;15.70;99.90;;;;;;5032611;28;20210;-73
2022/06/17 02:39:35;;;;;;;1.27;1.00;;;15.70;99.90;;;;;;5018599;28;20215;-73
2022/06/17 02:42:03;;;;;;;2.87;1.33;;;15.70;99.90;;;;;;5015961;28;20211;-73
2022/06/17 02:44:39;;;;;;;1.67;1.23;;;15.70;99.90;;;;;;5021409;28;20218;-74
2022/06/17 02:47:07;;;;;;;5.17;1.60;;;15.70;99.90;;;;;;5018002;28;20229;-74
2022/06/17 02:49:36;;;;;;;1.80;1.50;;;15.80;99.90;;;;;;5015266;28;20202;-73
2022/06/17 02:52:08;;;;;;;1.93;1.30;;;15.80;99.90;;;;;;5014208;28;20203;-72
2022/06/17 02:54:39;;;;;;;5.40;1.80;;;15.80;99.90;;;;;;5022864;28;20203;-73
2022/06/17 02:57:09;;;;;;;2.50;1.10;;;15.80;99.90;;;;;;5022250;28;20222;-72
2022/06/17 02:59:44;;;;;;;4.07;1.80;;;15.80;99.90;;;;;;5015467;28;20219;-73
2022/06/17 03:02:15;;;;;;;5.40;1.37;;;15.90;99.90;;;;;;5018087;28;20202;-72
2022/06/17 03:04:45;;;;;;;3.27;1.40;;;15.80;99.90;;;;;;5028950;28;20207;-73
2022/06/17 03:07:15;;;;;;;5.27;1.50;;;15.90;99.90;;;;;;5016698;28;20586;-74
2022/06/17 03:09:43;;;;;;;4.57;1.43;;;15.90;99.90;;;;;;5015137;28;20199;-73
2022/06/17 03:12:12;;;;;;;1.47;1.37;;;16.00;99.90;;;;;;5014408;28;20237;-73
2022/06/17 03:14:44;;;;;;;2.20;1.87;;;16.00;99.90;;;;;;5015241;28;20616;-73
2022/06/17 03:17:14;;;;;;;2.10;1.33;;;15.90;99.90;;;;;;5017042;28;20203;-73
2022/06/17 03:19:41;;;;;;;2.50;1.40;;;16.10;99.90;;;;;;5028093;28;20234;-73
2022/06/17 03:22:12;;;;;;;2.23;1.30;;;16.10;99.90;;;;;;5028483;28;20206;-73
2022/06/17 03:24:44;;;;;;;3.17;1.40;;;16.10;99.90;;;;;;5027089;28;20234;-73
2022/06/17 03:27:15;;;;;;;2.97;1.37;;;16.10;99.90;;;;;;5015291;28;20552;-73
2022/06/17 03:29:46;;;;;;;2.03;1.47;;;16.20;99.90;;;;;;5018610;28;20570;-73
2022/06/17 03:32:19;;;;;;;4.20;1.27;;;16.20;99.90;;;;;;5020423;28;20210;-73
2022/06/17 03:34:49;;;;;;;2.93;1.13;;;16.30;99.90;;;;;;5025466;28;20286;-73
2022/06/17 03:37:22;;;;;;;2.50;1.27;;;16.30;99.90;;;;;;5014223;28;20738;-73
2022/06/17 03:39:52;;;;;;;1.10;1.00;;;16.30;99.90;;;;;;5015845;28;20295;-74
2022/06/17 03:42:23;;;;;;;2.03;1.30;;;16.30;99.90;;;;;;5017675;28;20199;-73
2022/06/17 03:44:57;;;;;;;2.63;1.60;;;16.30;99.90;;;;;;5021281;28;20208;-74
2022/06/17 03:47:27;;;;;;;2.93;1.50;;;16.30;99.90;;;;;;5013622;28;20571;-73
2022/06/17 03:49:58;;;;;;;2.80;1.23;;;16.30;99.90;;;;;;5028254;28;20199;-73
2022/06/17 03:52:33;;;;;;;1.20;1.10;;;16.30;99.90;;;;;;5014563;28;20207;-73
2022/06/17 03:55:00;;;;;;;5.77;1.60;;;16.40;99.90;;;;;;5018352;28;20202;-72
2022/06/17 03:57:32;;;;;;;1.90;1.30;;;16.40;99.90;;;;;;5026175;28;20726;-73
2022/06/17 04:00:02;;;;;;;2.33;1.37;;;16.50;99.90;;;;;;5014473;28;20223;-73
2022/06/17 04:02:32;;;;;;;1.80;1.40;;;16.50;99.90;;;;;;5018882;28;20582;-72
2022/06/17 04:05:00;;;;;;;4.00;1.43;;;16.50;99.90;;;;;;5017611;28;20206;-72
2022/06/17 04:07:27;;;;;;;1.43;1.07;;;16.60;99.90;;;;;;5014519;28;20212;-73
2022/06/17 04:09:54;;;;;;;1.60;1.13;;;16.60;99.90;;;;;;5017826;28;20214;-73
2022/06/17 04:12:26;;;;;;;2.63;1.50;;;16.70;99.90;;;;;;5013930;28;20209;-73
2022/06/17 04:14:59;;;;;;;2.07;1.77;;;16.70;99.90;;;;;;5022363;28;20246;-73
2022/06/17 04:17:32;;;;;;;2.30;1.20;;;16.80;99.90;;;;;;5027572;28;20302;-73
2022/06/17 04:20:17;;;;;;;1.93;1.10;;;16.90;99.90;;;;;;5013280;28;20672;-73
2022/06/17 04:22:49;;;;;;;1.70;1.30;;;16.90;99.90;;;;;;5022662;28;20209;-73
2022/06/17 04:25:19;;;;;;;1.00;0.90;;;16.90;99.90;;;;;;5023493;28;20203;-73
2022/06/17 04:27:59;;;;;;;2.20;1.20;;;16.90;99.90;;;;;;5013941;28;20234;-74
2022/06/17 04:30:31;;;;;;;2.67;1.10;;;16.90;99.90;;;;;;5018478;28;20222;-73
2022/06/17 04:33:04;;;;;;;2.63;1.13;;;17.00;99.90;;;;;;5014884;28;20214;-73
2022/06/17 04:35:31;;;;;;;1.87;1.00;;;17.00;99.90;;;;;;5016051;28;20203;-73
2022/06/17 04:37:58;;;;;;;0.97;0.80;;;17.00;99.90;;;;;;5031820;28;20221;-72
2022/06/17 04:40:32;;;;;;;1.10;0.97;;;17.10;99.90;;;;;;5024553;28;20238;-73
2022/06/17 04:43:01;;;;;;;1.70;0.80;;;17.10;99.90;;;;;;5020028;28;20202;-73
2022/06/17 04:45:30;;;;;;;2.53;1.00;;;17.20;99.90;;;;;;5015911;28;20207;-73
2022/06/17 04:47:59;;;;;;;4.20;1.30;;;17.20;99.90;;;;;;5021888;28;20218;-73
2022/06/17 04:50:28;;;;;;;2.17;0.90;;;17.20;99.90;;;;;;5020489;28;20242;-73
2022/06/17 04:52:55;;;;;;;1.57;1.10;;;17.30;99.90;;;;;;5015338;28;20330;-73
2022/06/17 04:55:28;;;;;;;3.50;1.17;;;17.40;99.90;;;;;;5013971;28;20203;-74
2022/06/17 04:57:55;;;;;;;2.30;0.90;;;17.40;99.90;;;;;;5012513;28;20214;-72
2022/06/17 05:00:25;;;;;;;2.83;1.27;;;17.50;99.90;;;;;;5014952;28;21492;-73
2022/06/17 05:02:52;;;;;;;1.90;0.80;;;17.50;99.90;;;;;;5024564;28;20563;-73
2022/06/17 05:05:28;;;;;;;1.70;1.00;;;17.60;99.90;;;;;;5019146;28;20217;-73
2022/06/17 05:07:57;;;;;;;0.70;0.70;;;17.60;99.90;;;;;;5013315;28;20525;-73
2022/06/17 05:10:29;;;;;;;4.17;1.20;;;17.60;99.90;;;;;;5014949;28;20203;-73
2022/06/17 05:13:01;;;;;;;1.47;1.33;;;17.70;99.90;;;;;;5014714;28;20203;-73
2022/06/17 05:15:28;;;;;;;1.57;1.10;;;17.70;99.90;;;;;;5017139;28;20238;-73
2022/06/17 05:17:56;;;;;;;1.10;0.90;;;17.70;99.90;;;;;;5020316;28;20243;-73
2022/06/17 05:20:26;;;;;;;2.28;1.10;;;17.80;99.90;;;;;;5022088;28;20539;-73
2022/06/17 05:22:56;;;;;;;2.53;1.20;;;17.80;99.90;;;;;;5023515;28;20210;-74
2022/06/17 05:25:28;;;;;;;1.43;0.83;;;17.80;99.90;;;;;;5012533;28;20210;-74
2022/06/17 05:27:55;;;;;;;4.95;1.40;;;17.90;99.90;;;;;;5013958;28;20219;-73
2022/06/17 05:30:22;;;;;;;1.60;1.02;;;17.90;99.90;;;;;;5016475;28;20238;-73
2022/06/17 05:32:51;;;;;;;1.03;0.77;;;17.90;99.90;;;;;;5027415;28;20203;-73
2022/06/17 05:35:19;;;;;;;2.53;1.47;;;18.00;99.90;;;;;;5024698;28;20203;-74
2022/06/17 05:37:48;;;;;;;1.03;0.93;;;18.00;99.90;;;;;;5025399;28;20207;-74
2022/06/17 05:40:15;;;;;;;1.77;1.30;;;18.00;99.90;;;;;;5015966;28;20584;-73
2022/06/17 05:42:44;;;;;;;2.07;1.20;;;18.00;99.90;;;;;;5018218;28;20217;-73
2022/06/17 05:45:16;;;;;;;2.83;1.37;;;18.00;99.90;;;;;;5017488;28;20246;-74
2022/06/17 05:47:42;;;;;;;1.85;1.00;;;18.10;99.90;;;;;;5014013;28;20226;-73
2022/06/17 05:50:10;;;;;;;2.70;1.10;;;18.20;99.90;;;;;;5021138;28;20215;-74
2022/06/17 05:52:51;;;;;;;1.47;0.90;;;18.20;99.90;;;;;;5016854;28;20582;-73
2022/06/17 05:55:19;;;;;;;1.65;0.95;;;18.20;99.90;;;;;;5012591;28;20207;-73
2022/06/17 05:57:46;;;;;;;3.58;0.95;;;18.20;99.90;;;;;;5011887;28;20208;-73
2022/06/17 06:00:15;;;;;;;2.55;1.20;;;18.30;99.90;;;;;;5012723;28;20231;-73
2022/06/17 06:02:42;;;;;;;1.33;1.00;;;18.40;99.90;;;;;;5013558;28;20203;-74
2022/06/17 06:05:12;;;;;;;2.92;1.20;;;18.40;99.90;;;;;;5011782;28;20208;-74
2022/06/17 06:07:39;;;;;;;2.08;1.25;;;18.50;99.90;;;;;;5010431;28;20207;-73
2022/06/17 06:10:08;;;;;;;1.15;0.80;;;18.50;99.90;;;;;;5011171;28;20196;-73
2022/06/17 06:15:20;;;;;;;2.55;1.20;;;18.60;99.90;;;;;;5012566;28;20241;-74
2022/06/17 06:17:48;;;;;;;1.65;1.00;;;18.60;99.90;;;;;;5011935;28;20222;-74
2022/06/17 06:20:16;;;;;;;2.63;1.20;;;18.60;99.90;;;;;;5019376;28;20613;-74
2022/06/17 06:22:43;;;;;;;2.85;1.20;;;18.60;99.90;;;;;;5011852;28;20218;-71
2022/06/17 06:25:13;;;;;;;1.35;1.02;;;18.70;99.90;;;;;;5012685;28;20207;-72
2022/06/17 06:27:39;;;;;;;1.88;1.08;;;18.70;99.90;;;;;;5007432;28;20211;-73
2022/06/17 06:30:08;;;;;;;1.52;0.93;;;18.70;99.90;;;;;;5012986;28;20224;-73
2022/06/17 06:32:34;;;;;;;1.20;1.10;;;18.80;99.90;;;;;;5014035;28;20215;-72
2022/06/17 06:35:01;;;;;;;4.22;1.35;;;18.80;99.90;;;;;;5012057;28;20210;-72
2022/06/17 06:37:28;;;;;;;2.15;1.00;;;18.90;99.90;;;;;;5011911;28;20218;-73
2022/06/17 06:39:55;;;;;;;1.17;0.95;;;18.80;99.90;;;;;;5013231;28;20526;-73
2022/06/17 06:42:23;;;;;;;2.33;0.90;;;19.00;99.90;;;;;;5012670;28;20569;-73
2022/06/17 06:44:50;;;;;;;1.77;1.10;;;19.10;99.90;;;;;;5014089;28;20207;-72
2022/06/17 06:47:17;;;;;;;2.28;0.80;;;19.10;99.90;;;;;;5019592;28;20572;-73
2022/06/17 06:49:44;;;;;;;2.47;0.80;;;19.30;99.90;;;;;;5025996;28;20290;-73
2022/06/17 06:52:10;;;;;;;1.90;1.00;;;19.30;99.90;;;;;;5018863;28;20215;-73
2022/06/17 06:54:37;;;;;;;1.23;0.68;;;19.30;99.90;;;;;;5016939;28;20211;-75
2022/06/17 06:57:05;;;;;;;1.58;0.93;;;19.30;99.90;;;;;;5016359;28;20203;-74
2022/06/17 06:59:33;;;;;;;2.35;0.90;;;19.30;99.90;;;;;;5016079;28;20229;-74
2022/06/17 07:02:00;;;;;;;1.55;0.90;;;19.40;99.90;;;;;;5018766;28;20226;-74
2022/06/17 07:04:26;;;;;;;1.48;0.90;;;19.40;99.90;;;;;;5016497;28;20619;-73
2022/06/17 07:06:53;;;;;;;1.10;1.00;;;19.40;99.90;;;;;;5015777;28;20656;-74
2022/06/17 07:09:22;;;;;;;1.40;0.77;;;19.50;99.90;;;;;;5016972;28;20202;-73
2022/06/17 07:11:49;;;;;;;2.13;1.02;;;19.60;99.90;;;;;;5018171;28;20217;-73
2022/06/17 07:14:15;;;;;;;1.42;0.98;;;19.80;99.90;;;;;;5019507;28;20663;-73
2022/06/17 07:16:44;;;;;;;1.55;0.77;;;19.90;99.70;;;;;;5019641;28;20207;-72
2022/06/17 07:19:15;;;;;;;4.72;1.05;;;20.00;99.50;;;;;;5013429;28;20230;-72
2022/06/17 07:21:41;;;;;;;1.75;0.88;;;20.00;99.20;;;;;;5015653;28;20222;-73
2022/06/17 07:24:08;;;;;;;2.20;1.02;;;20.10;98.90;;;;;;5015104;28;20217;-72
2022/06/17 07:26:35;;;;;;;2.20;0.88;;;20.20;98.40;;;;;;5016453;28;20199;-75
2022/06/17 07:29:02;;;;;;;3.22;1.35;;;20.20;97.80;;;;;;5020253;28;20229;-69
2022/06/17 07:31:29;;;;;;;3.30;1.05;;;20.30;97.60;;;;;;5021738;28;20214;-69
2022/06/17 07:33:57;;;;;;;1.13;0.82;;;20.20;97.00;;;;;;5017922;28;20215;-70
2022/06/17 07:41:58;;;;;;;1.23;0.90;;;20.60;96.60;;;;;;5020507;28;20225;-69
2022/06/17 07:44:25;;;;;;;0.93;0.93;;;20.70;96.40;;;;;;5015262;28;20203;-69
2022/06/17 07:46:52;;;;;;;2.40;0.85;;;20.80;96.00;;;;;;5013769;28;20211;-69
2022/06/17 07:49:20;;;;;;;1.10;1.00;;;20.80;96.00;;;;;;5015100;28;20210;-70
2022/06/17 07:51:47;;;;;;;1.55;1.00;;;20.80;96.20;;;;;;5018019;28;20639;-70
2022/06/17 07:54:15;;;;;;;2.08;1.00;;;20.90;96.10;;;;;;5022389;28;20679;-69
2022/06/17 07:56:42;;;;;;;1.15;0.95;;;20.90;95.90;;;;;;5014039;28;20200;-69
2022/06/17 07:59:09;;;;;;;0.85;0.85;;;21.00;95.60;;;;;;5016179;28;20215;-77
2022/06/17 08:01:36;;;;;;;2.47;0.80;;;21.20;95.40;;;;;;5023681;28;20326;-71
2022/06/17 08:04:03;;;;;;;1.40;0.77;;;21.20;95.00;;;;;;5023149;28;20212;-71
2022/06/17 08:06:31;;;;;;;3.80;1.00;;;21.30;94.70;;;;;;5015126;28;20357;-70
2022/06/17 08:08:59;;;;;;;1.90;0.90;;;21.50;94.30;;;;;;5017824;28;20214;-68
2022/06/17 08:11:25;;;;;;;2.70;0.80;;;21.60;94.00;;;;;;5015006;28;20309;-69
2022/06/17 08:13:52;;;;;;;2.70;0.90;;;21.70;93.50;;;;;;5011559;28;20275;-68
2022/06/17 08:16:19;;;;;;;2.05;1.05;;;21.80;92.90;;;;;;5015872;28;20253;-70
2022/06/17 08:18:46;;;;;;;2.45;0.80;;;21.90;92.70;;;;;;5017291;28;20215;-70
2022/06/17 08:21:13;;;;;;;1.17;1.00;;;22.00;92.50;;;;;;5013361;28;20262;-68
2022/06/17 08:23:42;;;;;;;1.95;0.90;;;22.10;92.10;;;;;;5013488;28;20203;-69
2022/06/17 08:26:09;;;;;;;1.55;1.00;;;22.20;91.80;;;;;;5017145;28;20215;-75
2022/06/17 08:28:35;;;;;;;1.40;1.00;;;22.40;91.30;;;;;;5022604;28;20207;-70
2022/06/17 08:31:02;;;;;;;1.77;0.90;;;22.50;91.30;;;;;;5011743;28;20214;-69
2022/06/17 08:33:29;;;;;;;2.55;0.82;;;22.60;91.20;;;;;;5021841;28;20219;-71
2022/06/17 08:36:01;;;;;;;1.75;1.13;;;22.70;91.20;;;;;;5015247;28;20946;-71
2022/06/17 08:38:31;;;;;;;2.88;1.00;;;22.80;91.20;;;;;;5026458;28;20554;-71
2022/06/17 08:41:00;;;;;;;1.95;0.80;;;22.80;90.40;;;;;;5017670;28;20231;-71
2022/06/17 08:44:00;;;;;;;2.42;0.90;;;22.70;90.30;;;;;;5018600;28;20214;-71
2022/06/17 08:46:39;;;;;;;0.65;0.60;;;22.70;90.30;;;;;;5014052;28;20211;-72
2022/06/17 08:49:25;;;;;;;2.25;1.70;;;22.90;90.10;;;;;;5018740;28;20210;-72
2022/06/17 08:52:16;;;;;;;2.33;1.08;;;23.00;89.80;;;;;;5014158;28;20215;-73
2022/06/17 08:54:52;;;;;;;2.65;1.15;;;23.10;88.80;;;;;;5014463;28;20207;-71
2022/06/17 08:57:29;;;;;;;1.40;0.80;;;23.10;88.60;;;;;;5013549;28;20207;-73
2022/06/17 09:00:06;;;;;;;1.40;0.93;;;23.00;88.50;;;;;;5015421;28;20203;-73
2022/06/17 09:02:57;;;;;;;1.13;1.00;;;22.80;88.50;;;;;;5016806;28;20238;-72
2022/06/17 09:05:36;;;;;;;1.83;0.90;;;22.80;89.10;;;;;;5018448;28;20215;-73
2022/06/17 09:08:31;;;;;;;4.25;1.17;;;22.90;89.10;;;;;;5023953;28;20214;-71
2022/06/17 09:11:12;;;;;;;1.45;0.85;;;23.10;88.40;;;;;;5010840;28;20390;-72
2022/06/17 09:13:57;;;;;;;1.38;0.88;;;23.30;87.10;;;;;;5013838;28;20199;-70
2022/06/17 09:16:32;;;;;;;3.22;1.00;;;23.60;85.80;;;;;;5019755;28;20254;-71
2022/06/17 09:19:02;;;;;;;3.53;1.17;;;23.80;85.00;;;;;;5011864;28;20211;-70
2022/06/17 09:21:35;;;;;;;1.90;1.00;;;23.60;85.60;;;;;;5011326;28;20219;-71
2022/06/17 09:24:07;;;;;;;1.65;0.95;;;23.60;86.30;;;;;;5017319;28;20227;-70
2022/06/17 09:26:40;;;;;;;2.95;1.10;;;23.60;85.70;;;;;;5029413;28;20207;-70
2022/06/17 09:29:16;;;;;;;1.85;1.17;;;23.60;85.70;;;;;;5012066;28;20230;-71
2022/06/17 09:31:48;;;;;;;2.85;1.20;;;23.70;85.60;;;;;;5016095;28;20202;-70
2022/06/17 09:34:21;;;;;;;1.33;1.10;;;23.70;85.20;;;;;;5014131;28;20230;-72
2022/06/17 09:36:52;;;;;;;1.60;0.95;;;23.80;84.90;;;;;;5011646;28;20199;-70
2022/06/17 09:39:30;;;;;;;1.13;0.90;;;23.80;84.30;;;;;;5012711;28;20589;-70
2022/06/17 09:42:04;;;;;;;1.13;0.90;;;23.70;83.40;;;;;;5009687;28;20230;-68
2022/06/17 09:44:36;;;;;;;1.77;0.80;;;23.70;83.30;;;;;;5013378;28;20214;-68
2022/06/17 09:47:08;;;;;;;1.23;1.00;;;23.90;84.20;;;;;;5011942;28;20210;-68
2022/06/17 09:49:40;;;;;;;1.45;1.00;;;24.10;83.20;;;;;;5012436;28;20207;-69
2022/06/17 09:52:11;;;;;;;3.17;1.00;;;24.10;82.80;;;;;;5014455;28;20215;-67
2022/06/17 09:54:44;;;;;;;1.67;0.80;;;24.10;81.90;;;;;;5014534;28;20208;-69
2022/06/17 09:57:16;;;;;;;1.45;0.80;;;24.20;81.50;;;;;;5019718;28;20230;-68
2022/06/17 09:59:49;;;;;;;2.25;0.88;;;24.30;81.40;;;;;;5015779;28;20202;-68
2022/06/17 10:02:22;;;;;;;1.67;1.00;;;24.50;81.50;;;;;;5014428;28;20223;-68
2022/06/17 10:04:51;;;;;;;4.35;1.02;;;24.70;80.40;;;;;;5020911;28;20207;-69
2022/06/17 10:07:26;;;;;;;2.40;0.88;;;24.80;79.30;;;;;;5012917;28;20221;-67
2022/06/17 10:10:06;;;;;;;2.75;0.68;;;24.90;79.30;;;;;;5012145;28;20210;-68
2022/06/17 10:12:44;;;;;;;2.42;0.90;;;25.10;78.70;;;;;;5020829;28;20687;-69
2022/06/17 10:15:28;;;;;;;2.28;0.93;;;25.30;77.80;;;;;;5012592;28;20242;-68
2022/06/17 10:20:59;;;;;;;2.38;1.30;;;25.40;76.30;;;;;;5012554;28;20655;-68
2022/06/17 10:23:40;;;;;;;2.00;1.00;;;25.50;75.30;;;;;;5023647;28;20671;-68
2022/06/17 10:26:16;;;;;;;1.20;0.80;;;25.50;74.60;;;;;;5021343;28;20575;-67
2022/06/17 10:29:13;;;;;;;2.40;0.90;;;25.60;74.40;;;;;;5015861;28;20698;-67
2022/06/17 10:31:44;;;;;;;1.13;0.88;;;26.00;73.70;;;;;;5016916;28;20203;-68
2022/06/17 10:34:16;;;;;;;2.22;0.88;;;26.20;72.30;;;;;;5018272;28;20203;-68
2022/06/17 10:36:44;;;;;;;3.33;0.93;;;26.10;71.60;;;;;;5018508;28;20211;-67
2022/06/17 10:39:14;;;;;;;1.42;0.70;;;26.00;71.90;;;;;;5017451;28;20211;-67
2022/06/17 10:41:42;;;;;;;1.38;0.85;;;25.80;71.90;;;;;;5020146;28;20589;-67
2022/06/17 10:44:12;;;;;;;1.65;0.90;;;25.60;71.50;;;;;;5020955;28;20226;-67
2022/06/17 10:46:45;;;;;;;1.38;1.27;;;25.40;72.20;;;;;;5019807;28;20211;-67
2022/06/17 10:49:17;;;;;;;2.08;1.00;;;25.30;72.50;;;;;;5015137;28;20207;-68
2022/06/17 10:51:46;;;;;;;1.58;0.90;;;25.20;72.40;;;;;;5020591;28;20203;-68
2022/06/17 10:54:20;;;;;;;1.63;0.85;;;25.10;72.30;;;;;;5013926;28;20222;-67
2022/06/17 10:56:55;;;;;;;1.48;0.70;;;25.10;72.30;;;;;;5014685;28;20195;-68
2022/06/17 10:59:33;;;;;;;2.60;0.95;;;25.10;72.30;;;;;;5018655;28;20206;-69
2022/06/17 11:02:01;;;;;;;1.60;1.00;;;25.00;72.20;;;;;;5017484;28;20251;-67
2022/06/17 11:04:31;;;;;;;2.45;1.02;;;24.90;72.00;;;;;;5020939;28;20215;-68
2022/06/17 11:07:01;;;;;;;1.80;0.85;;;24.70;73.20;;;;;;5029701;28;20210;-68
2022/06/17 11:09:33;;;;;;;2.38;1.00;;;24.50;72.90;;;;;;5022028;28;20213;-68
2022/06/17 11:12:05;;;;;;;1.95;1.08;;;24.30;73.50;;;;;;5030346;28;20557;-68
2022/06/17 11:14:36;;;;;;;1.40;0.85;;;24.10;74.00;;;;;;5032268;28;20290;-67
2022/06/17 11:17:15;;;;;;;3.05;0.98;;;24.10;74.70;;;;;;5030624;28;20210;-67
2022/06/17 11:19:43;;;;;;;3.05;1.15;;;24.20;75.60;;;;;;5015543;28;20211;-67
2022/06/17 11:22:19;;;;;;;2.25;0.95;;;24.50;75.50;;;;;;5027960;28;20687;-68
2022/06/17 11:24:54;;;;;;;2.00;1.05;;;24.80;74.70;;;;;;5029761;28;20202;-67
2022/06/17 11:27:27;;;;;;;1.33;1.05;;;25.00;74.10;;;;;;5016161;28;20686;-68
2022/06/17 11:29:56;;;;;;;1.95;1.00;;;25.00;73.30;;;;;;5022018;28;20587;-68
2022/06/17 11:32:33;;;;;;;2.35;0.88;;;25.00;73.60;;;;;;5022711;28;20204;-67
2022/06/17 11:35:16;;;;;;;1.80;0.85;;;25.20;74.30;;;;;;5015142;28;20207;-67
2022/06/17 11:37:43;;;;;;;1.13;1.02;;;25.40;73.40;;;;;;5022523;28;20206;-68
2022/06/17 11:40:16;;;;;;;2.05;1.50;;;25.60;72.90;;;;;;5031263;28;20207;-68
2022/06/17 11:42:52;;;;;;;0.82;0.82;;;25.90;72.30;;;;;;5024595;28;20294;-67
2022/06/17 11:45:22;;;;;;;1.25;1.05;;;26.10;70.30;;;;;;5019028;28;20207;-68
2022/06/17 11:47:55;;;;;;;1.42;1.00;;;26.30;69.70;;;;;;5014645;28;20674;-68
2022/06/17 11:50:25;;;;;;;2.72;1.00;;;26.50;69.00;;;;;;5018098;28;20223;-68
2022/06/17 11:53:00;;;;;;;3.05;1.08;;;26.50;68.40;;;;;;5014403;28;20204;-67
2022/06/17 11:55:28;;;;;;;1.33;0.85;;;26.50;68.50;;;;;;5013540;28;20203;-68
2022/06/17 11:57:55;;;;;;;1.52;1.17;;;26.50;68.60;;;;;;5018508;28;20218;-68
2022/06/17 12:00:26;;;;;;;1.80;1.02;;;26.60;68.60;;;;;;5016300;28;20668;-70
2022/06/17 12:02:57;;;;;;;1.83;0.98;;;26.50;67.70;;;;;;5016334;28;20222;-69
2022/06/17 12:05:27;;;;;;;1.08;0.70;;;26.50;67.60;;;;;;5017594;28;20209;-68
2022/06/17 12:07:58;;;;;;;1.08;0.60;;;26.30;66.90;;;;;;5020093;28;20210;-68
2022/06/17 12:10:34;;;;;;;1.83;0.82;;;26.10;66.00;;;;;;5015098;28;20210;-69
2022/06/17 12:13:09;;;;;;;2.63;0.75;;;26.00;66.00;;;;;;5031081;28;20206;-69
2022/06/17 12:15:39;;;;;;;2.00;0.82;;;25.80;66.10;;;;;;5028943;28;20242;-69
2022/06/17 12:18:16;;;;;;;0.93;0.77;;;25.60;66.30;;;;;;5023534;28;20210;-68
2022/06/17 12:20:52;;;;;;;1.67;0.68;;;25.40;67.00;;;;;;5020807;28;20318;-68
2022/06/17 12:23:26;;;;;;;0.80;0.80;;;25.20;67.60;;;;;;5025261;28;20211;-70
2022/06/17 12:25:58;;;;;;;2.42;0.90;;;25.10;68.20;;;;;;5025790;28;20639;-70
2022/06/17 12:28:34;;;;;;;2.30;0.90;;;25.00;68.90;;;;;;5014352;28;20195;-69
2022/06/17 12:31:07;;;;;;;1.63;1.05;;;25.10;69.20;;;;;;5018866;28;20202;-67
2022/06/17 12:33:39;;;;;;;2.63;1.52;;;25.10;69.30;;;;;;5015862;28;20203;-69
2022/06/17 12:36:13;;;;;;;2.42;0.98;;;25.20;68.70;;;;;;5019635;28;20206;-68
2022/06/17 12:38:48;;;;;;;0.95;0.82;;;25.20;68.90;;;;;;5014334;28;20321;-68
2022/06/17 12:41:22;;;;;;;2.63;0.80;;;25.10;69.00;;;;;;5017220;28;20205;-70
2022/06/17 12:44:00;;;;;;;2.85;1.00;;;25.00;69.20;;;;;;5015886;28;20225;-75
2022/06/17 12:46:31;;;;;;;2.95;0.88;;;24.80;69.50;;;;;;5012573;28;20683;-70
2022/06/17 12:54:52;;;;;;;2.28;1.05;;;24.60;71.20;;;;;;5014878;28;20341;-70
2022/06/17 12:57:26;;;;;;;1.83;0.85;;;24.50;70.70;;;;;;5017796;28;20199;-71
2022/06/17 13:00:01;;;;;;;1.25;0.90;;;24.40;70.30;;;;;;5013396;28;20202;-71
2022/06/17 13:02:50;;;;;;;0.80;0.80;;;24.20;70.50;;;;;;5016190;28;20213;-72
2022/06/17 13:05:25;;;;;;;1.35;0.80;;;24.20;71.10;;;;;;5012862;28;20235;-71
2022/06/17 13:08:03;;;;;;;3.25;0.80;;;24.10;72.20;;;;;;5016585;28;20221;-70
2022/06/17 13:10:42;;;;;;;1.05;0.90;;;24.10;71.80;;;;;;5016050;28;20207;-71
2022/06/17 13:13:23;;;;;;;0.90;0.77;;;24.00;72.10;;;;;;5013458;28;20222;-71
2022/06/17 13:15:55;;;;;;;1.55;0.95;;;23.90;72.30;;;;;;5013089;28;20230;-70
2022/06/17 13:18:27;;;;;;;4.00;0.93;;;23.90;72.50;;;;;;5016228;28;20214;-70
2022/06/17 13:21:02;;;;;;;1.48;1.17;;;23.80;72.90;;;;;;5012577;28;20207;-71
2022/06/17 13:23:35;;;;;;;2.22;1.02;;;23.90;73.30;;;;;;5016577;28;20215;-70
2022/06/17 13:26:08;;;;;;;2.65;1.20;;;23.90;73.30;;;;;;5021336;28;20207;-70
2022/06/17 13:28:41;;;;;;;1.33;0.93;;;23.90;72.40;;;;;;5018495;28;20217;-78